Observation data for Gail on 11/08/2019      Previous  Date       Current Mesonet Observations  Soil Data  Daily Summary Page  Observations in Plain Language
KGGS 080600Z 36009KT 02/00 A3045 RMK A01 T00220002  RH  087%=      5-min Rain = 0
KGGS 080605Z 00010KT 02/00 A3045 RMK A01 T00220001  RH  087%=      5-min Rain = 0
KGGS 080610Z 01009KT 02/00 A3045 RMK A01 T00220001  RH  087%=      5-min Rain = 0
KGGS 080615Z 01008KT 02/00 A3045 RMK A01 T00220000  RH  087%=      5-min Rain = 0
KGGS 080620Z 36008G13KT 02/M00 A3045 RMK A01 T00211001  RH  086%=      5-min Rain = 0
KGGS 080625Z 02010KT 02/M00 A3045 RMK A01 T00201002  RH  086%=      5-min Rain = 0
KGGS 080630Z 02011KT 02/M01 A3045 RMK A01 T00181008  RH  084%=      5-min Rain = 0
KGGS 080635Z 02011KT 02/M01 A3045 RMK A01 T00181012  RH  081%=      5-min Rain = 0
KGGS 080640Z 02010KT 02/M02 A3045 RMK A01 T00181015  RH  079%=      5-min Rain = 0
KGGS 080645Z 02008KT 02/M02 A3045 RMK A01 T00181015  RH  079%=      5-min Rain = 0
KGGS 080650Z 02008KT 02/M01 A3045 RMK A01 T00191014  RH  079%=      5-min Rain = 0
KGGS 080655Z 02007KT 02/M01 A3045 RMK A01 T00191014  RH  080%=      5-min Rain = 0
KGGS 080700Z 01007KT 02/M01 A3045 RMK A01 T00191012  RH  081%=      5-min Rain = 0
KGGS 080705Z 02008KT 02/M01 A3045 RMK A01 T00191012  RH  081%=      5-min Rain = 0
KGGS 080710Z 02008KT 02/M01 A3045 RMK A01 T00191012  RH  081%=      5-min Rain = 0
KGGS 080715Z 01007KT 02/M01 A3045 RMK A01 T00201011  RH  081%=      5-min Rain = 0
KGGS 080720Z 01007KT 02/M01 A3045 RMK A01 T00201011  RH  081%=      5-min Rain = 0
KGGS 080725Z 02006KT 02/M01 A3044 RMK A01 T00201010  RH  081%=      5-min Rain = 0
KGGS 080730Z 01007KT 02/M01 A3044 RMK A01 T00201010  RH  081%=      5-min Rain = 0
KGGS 080735Z 02006KT 02/M01 A3044 RMK A01 T00201008  RH  082%=      5-min Rain = 0
KGGS 080740Z 02007KT 02/M01 A3044 RMK A01 T00201008  RH  083%=      5-min Rain = 0
KGGS 080745Z 01007KT 02/M01 A3044 RMK A01 T00191007  RH  083%=      5-min Rain = 0
KGGS 080750Z 01006KT 02/M01 A3044 RMK A01 T00191006  RH  084%=      5-min Rain = 0
KGGS 080755Z 01006KT 02/M01 A3043 RMK A01 T00191005  RH  085%=      5-min Rain = 0
KGGS 080800Z 00005KT 02/M00 A3043 RMK A01 T00191004  RH  086%=      5-min Rain = 0
KGGS 080805Z 00005KT 02/M00 A3043 RMK A01 T00191003  RH  086%=      5-min Rain = 0
KGGS 080810Z 00007KT 02/M00 A3043 RMK A01 T00181003  RH  087%=      5-min Rain = 0
KGGS 080815Z 01007KT 02/M00 A3043 RMK A01 T00181003  RH  087%=      5-min Rain = 0
KGGS 080820Z 01006KT 02/M00 A3043 RMK A01 T00191002  RH  087%=      5-min Rain = 0
KGGS 080825Z 01006KT 02/M00 A3043 RMK A01 T00191002  RH  087%=      5-min Rain = 0
KGGS 080830Z 01005KT 02/M00 A3043 RMK A01 T00191001  RH  087%=      5-min Rain = 0
KGGS 080835Z 01005KT 02/M00 A3043 RMK A01 T00191001  RH  087%=      5-min Rain = 0
KGGS 080840Z 01004KT 02/00 A3043 RMK A01 T002000-0  RH  087%=      5-min Rain = 0
KGGS 080845Z 01005KT 02/00 A3043 RMK A01 T002000-0  RH  088%=      5-min Rain = 0
KGGS 080850Z 00004KT 02/00 A3043 RMK A01 T00200000  RH  088%=      5-min Rain = 0
KGGS 080855Z 01006KT 02/00 A3043 RMK A01 T00210001  RH  088%=      5-min Rain = 0
KGGS 080900Z 01005KT 02/00 A3043 RMK A01 T00210001  RH  088%=      5-min Rain = 0
KGGS 080905Z 02006KT 02/00 A3043 RMK A01 T00210001  RH  088%=      5-min Rain = 0
KGGS 080910Z 01006KT 02/00 A3043 RMK A01 T00210001  RH  088%=      5-min Rain = 0
KGGS 080915Z 01007KT 02/00 A3042 RMK A01 T00210001  RH  088%=      5-min Rain = 0
KGGS 080920Z 01006KT 02/00 A3042 RMK A01 T00210001  RH  088%=      5-min Rain = 0
KGGS 080925Z 01006KT 02/00 A3043 RMK A01 T00220002  RH  088%=      5-min Rain = 0
KGGS 080930Z 01005KT 02/00 A3043 RMK A01 T00220002  RH  088%=      5-min Rain = 0
KGGS 080935Z 02005KT 02/00 A3042 RMK A01 T00210001  RH  088%=      5-min Rain = 0
KGGS 080940Z 01006KT 02/M00 A3043 RMK A01 T00201001  RH  087%=      5-min Rain = 0
KGGS 080945Z 01006KT 02/M00 A3043 RMK A01 T00201001  RH  087%=      5-min Rain = 0
KGGS 080950Z 01006KT 02/M00 A3042 RMK A01 T00201002  RH  086%=      5-min Rain = 0
KGGS 080955Z 01006KT 02/M00 A3042 RMK A01 T00191004  RH  086%=      5-min Rain = 0
KGGS 081000Z 01006KT 02/M01 A3042 RMK A01 T00191005  RH  085%=      5-min Rain = 0
KGGS 081005Z 01006KT 02/M01 A3042 RMK A01 T00181006  RH  085%=      5-min Rain = 0
KGGS 081010Z 01006KT 02/M01 A3042 RMK A01 T00171008  RH  084%=      5-min Rain = 0
KGGS 081015Z 01006KT 02/M01 A3042 RMK A01 T00171009  RH  083%=      5-min Rain = 0
KGGS 081020Z 00007KT 02/M01 A3042 RMK A01 T00171010  RH  083%=      5-min Rain = 0
KGGS 081025Z 01006KT 02/M01 A3042 RMK A01 T00171011  RH  083%=      5-min Rain = 0
KGGS 081030Z 00006KT 02/M01 A3042 RMK A01 T00171011  RH  083%=      5-min Rain = 0
KGGS 081035Z 36007KT 02/M01 A3043 RMK A01 T00171010  RH  083%=      5-min Rain = 0
KGGS 081040Z 00006KT 02/M01 A3043 RMK A01 T00181010  RH  083%=      5-min Rain = 0
KGGS 081045Z 35005KT 02/M01 A3043 RMK A01 T00191009  RH  083%=      5-min Rain = 0
KGGS 081050Z 36006KT 02/M01 A3043 RMK A01 T00191010  RH  082%=      5-min Rain = 0
KGGS 081055Z 36007KT 02/M01 A3043 RMK A01 T00191012  RH  081%=      5-min Rain = 0
KGGS 081100Z 01005KT 02/M01 A3042 RMK A01 T00191012  RH  081%=      5-min Rain = 0
KGGS 081105Z 01005KT 02/M01 A3041 RMK A01 T00201011  RH  080%=      5-min Rain = 0
KGGS 081110Z 01004KT 02/M01 A3041 RMK A01 T00211012  RH  080%=      5-min Rain = 0
KGGS 081115Z 01006KT 02/M01 A3041 RMK A01 T00211013  RH  079%=      5-min Rain = 0
KGGS 081120Z 01006KT 02/M01 A3041 RMK A01 T00211013  RH  079%=      5-min Rain = 0
KGGS 081125Z 00006KT 02/M01 A3041 RMK A01 T00211013  RH  079%=      5-min Rain = 0
KGGS 081130Z 02004KT 02/M01 A3041 RMK A01 T00221013  RH  079%=      5-min Rain = 0
KGGS 081135Z 01004KT 02/M01 A3041 RMK A01 T00221012  RH  079%=      5-min Rain = 0
KGGS 081140Z 02004KT 02/M01 A3041 RMK A01 T00231011  RH  079%=      5-min Rain = 0
KGGS 081145Z 01003KT 02/M01 A3041 RMK A01 T00231010  RH  079%=      5-min Rain = 0
KGGS 081150Z 02005KT 02/M01 A3041 RMK A01 T00231010  RH  080%=      5-min Rain = 0
KGGS 081155Z 02005KT 02/M01 A3041 RMK A01 T00231011  RH  079%=      5-min Rain = 0
KGGS 081200Z 01004KT 02/M01 A3041 RMK A01 T00231011  RH  079%=      5-min Rain = 0
KGGS 081205Z 00004KT 02/M01 A3042 RMK A01 T00231009  RH  080%=      5-min Rain = 0
KGGS 081210Z 01004KT 02/M01 A3042 RMK A01 T00231009  RH  080%=      5-min Rain = 0
KGGS 081215Z 00004KT 02/M01 A3042 RMK A01 T00241009  RH  080%=      5-min Rain = 0
KGGS 081220Z 36004KT 02/M01 A3042 RMK A01 T00241008  RH  080%=      5-min Rain = 0
KGGS 081225Z 00004KT 02/M01 A3042 RMK A01 T00241009  RH  080%=      5-min Rain = 0
KGGS 081230Z 35004KT 03/M01 A3042 RMK A01 T00251008  RH  080%=      5-min Rain = 0
KGGS 081235Z 35004KT 03/M01 A3042 RMK A01 T00251008  RH  080%=      5-min Rain = 0
KGGS 081240Z 00004KT 03/M01 A3042 RMK A01 T00251007  RH  080%=      5-min Rain = 0
KGGS 081245Z 36005KT 03/M01 A3042 RMK A01 T00251007  RH  080%=      5-min Rain = 0
KGGS 081250Z 00005KT 03/M01 A3042 RMK A01 T00261006  RH  080%=      5-min Rain = 0
KGGS 081255Z 02004KT 03/M01 A3042 RMK A01 T00261005  RH  081%=      5-min Rain = 0
KGGS 081300Z 02004KT 03/M00 A3042 RMK A01 T00271004  RH  081%=      5-min Rain = 0
KGGS 081305Z 03003KT 03/M00 A3041 RMK A01 T00271004  RH  081%=      5-min Rain = 0
KGGS 081310Z 02003KT 03/M00 A3041 RMK A01 T00271003  RH  081%=      5-min Rain = 0
KGGS 081315Z 02003KT 03/M00 A3041 RMK A01 T00271003  RH  081%=      5-min Rain = 0
KGGS 081320Z 01003KT 03/M00 A3041 RMK A01 T00281002  RH  081%=      5-min Rain = 0
KGGS 081325Z 01003KT 03/M00 A3041 RMK A01 T00281002  RH  082%=      5-min Rain = 0
KGGS 081330Z 01003KT 03/M00 A3042 RMK A01 T00281002  RH  082%=      5-min Rain = 0
KGGS 081335Z 01003KT 03/M00 A3042 RMK A01 T00281001  RH  082%=      5-min Rain = 0
KGGS 081340Z 01003KT 03/00 A3042 RMK A01 T002900-0  RH  082%=      5-min Rain = 0
KGGS 081345Z 01004KT 03/M00 A3042 RMK A01 T00291001  RH  082%=      5-min Rain = 0
KGGS 081350Z 36003KT 03/M00 A3042 RMK A01 T00291001  RH  081%=      5-min Rain = 0
KGGS 081355Z 02003KT 03/00 A3042 RMK A01 T003000-0  RH  082%=      5-min Rain = 0
KGGS 081400Z 02003KT 03/00 A3042 RMK A01 T003000-0  RH  081%=      5-min Rain = 0
KGGS 081405Z 02003KT 03/M00 A3042 RMK A01 T00301001  RH  081%=      5-min Rain = 0
KGGS 081410Z 03004KT 03/M00 A3042 RMK A01 T00301001  RH  081%=      5-min Rain = 0
KGGS 081415Z 03003KT 03/00 A3042 RMK A01 T00320000  RH  081%=      5-min Rain = 0
KGGS 081420Z 03004KT 03/00 A3042 RMK A01 T00310000  RH  081%=      5-min Rain = 0
KGGS 081425Z 04004KT 03/M00 A3043 RMK A01 T00311001  RH  080%=      5-min Rain = 0
KGGS 081430Z 03003KT 03/M00 A3043 RMK A01 T00321001  RH  080%=      5-min Rain = 0
KGGS 081435Z 03003KT 03/00 A3043 RMK A01 T003200-0  RH  080%=      5-min Rain = 0
KGGS 081440Z 04004KT 03/00 A3043 RMK A01 T00340001  RH  080%=      5-min Rain = 0
KGGS 081445Z 02003KT 03/M00 A3043 RMK A01 T00341001  RH  079%=      5-min Rain = 0
KGGS 081450Z 05002KT 03/00 A3043 RMK A01 T003400-0  RH  079%=      5-min Rain = 0
KGGS 081455Z 04003KT 03/M00 A3043 RMK A01 T00341002  RH  079%=      5-min Rain = 0
KGGS 081500Z 03002KT 04/M00 A3043 RMK A01 T00351001  RH  078%=      5-min Rain = 0
KGGS 081505Z 02003KT 04/M00 A3043 RMK A01 T00351001  RH  078%=      5-min Rain = 0
KGGS 081510Z 02001KT 04/M00 A3043 RMK A01 T00361001  RH  078%=      5-min Rain = 0
KGGS 081515Z 35002KT 04/M00 A3043 RMK A01 T00371001  RH  077%=      5-min Rain = 0
KGGS 081520Z 34002KT 04/00 A3043 RMK A01 T00380000  RH  077%=      5-min Rain = 0
KGGS 081525Z 02003KT 04/00 A3043 RMK A01 T003800-0  RH  077%=      5-min Rain = 0
KGGS 081530Z 00002KT 04/00 A3044 RMK A01 T003800-0  RH  077%=      5-min Rain = 0
KGGS 081535Z 01002KT 04/00 A3044 RMK A01 T00390000  RH  077%=      5-min Rain = 0
KGGS 081540Z 03003KT 04/00 A3044 RMK A01 T00390001  RH  077%=      5-min Rain = 0
KGGS 081545Z 03003KT 04/00 A3044 RMK A01 T00400002  RH  077%=      5-min Rain = 0
KGGS 081550Z 03003KT 04/00 A3044 RMK A01 T00410002  RH  077%=      5-min Rain = 0
KGGS 081555Z 35003KT 04/00 A3044 RMK A01 T00420004  RH  077%=      5-min Rain = 0
KGGS 081600Z 01002KT 04/00 A3044 RMK A01 T00430003  RH  076%=      5-min Rain = 0
KGGS 081605Z 01003KT 04/00 A3044 RMK A01 T00440004  RH  076%=      5-min Rain = 0
KGGS 081610Z 01004KT 04/00 A3044 RMK A01 T00440004  RH  076%=      5-min Rain = 0
KGGS 081615Z 34003KT 04/00 A3044 RMK A01 T00440003  RH  076%=      5-min Rain = 0
KGGS 081620Z 35003KT 05/01 A3044 RMK A01 T00460006  RH  076%=      5-min Rain = 0
KGGS 081625Z 02003KT 05/01 A3044 RMK A01 T00450005  RH  076%=      5-min Rain = 0
KGGS 081630Z 01005KT 05/01 A3044 RMK A01 T00450005  RH  076%=      5-min Rain = 0
KGGS 081635Z 00003KT 04/01 A3044 RMK A01 T00440005  RH  076%=      5-min Rain = 0
KGGS 081640Z 01004KT 05/01 A3043 RMK A01 T00460006  RH  076%=      5-min Rain = 0
KGGS 081645Z 36003KT 05/01 A3043 RMK A01 T00470007  RH  076%=      5-min Rain = 0
KGGS 081650Z 01002KT 05/01 A3043 RMK A01 T00480007  RH  076%=      5-min Rain = 0
KGGS 081655Z 02003KT 05/01 A3043 RMK A01 T00490007  RH  075%=      5-min Rain = 0
KGGS 081700Z 34002KT 05/01 A3043 RMK A01 T00500008  RH  075%=      5-min Rain = 0
KGGS 081705Z 35003KT 05/01 A3042 RMK A01 T00510009  RH  075%=      5-min Rain = 0
KGGS 081710Z 32004KT 05/01 A3042 RMK A01 T00510010  RH  075%=      5-min Rain = 0
KGGS 081715Z 30002KT 05/01 A3042 RMK A01 T00510008  RH  075%=      5-min Rain = 0
KGGS 081720Z 34003KT 05/01 A3042 RMK A01 T00540011  RH  075%=      5-min Rain = 0
KGGS 081725Z 33003KT 05/01 A3042 RMK A01 T00540011  RH  075%=      5-min Rain = 0
KGGS 081730Z 01001KT 06/01 A3042 RMK A01 T00550011  RH  074%=      5-min Rain = 0
KGGS 081735Z 28002KT 06/02 A3042 RMK A01 T00590015  RH  075%=      5-min Rain = 0
KGGS 081740Z 33003KT 06/02 A3041 RMK A01 T00590015  RH  074%=      5-min Rain = 0
KGGS 081745Z 00004KT 06/01 A3041 RMK A01 T00590014  RH  074%=      5-min Rain = 0
KGGS 081750Z 01003KT 06/02 A3041 RMK A01 T00600015  RH  074%=      5-min Rain = 0
KGGS 081755Z 04002KT 06/02 A304 RMK A01 T00600015  RH  074%=      5-min Rain = 0
KGGS 081800Z 34002KT 06/02 A304 RMK A01 T00630017  RH  074%=      5-min Rain = 0
KGGS 081805Z 27002KT 07/02 A3039 RMK A01 T00650018  RH  073%=      5-min Rain = 0
KGGS 081810Z 26003KT 07/02 A3039 RMK A01 T00670019  RH  073%=      5-min Rain = 0
KGGS 081815Z 29003KT 07/02 A3038 RMK A01 T00670019  RH  072%=      5-min Rain = 0
KGGS 081820Z 33002KT 07/02 A3038 RMK A01 T00660018  RH  072%=      5-min Rain = 0
KGGS 081825Z 31001KT 07/02 A3038 RMK A01 T00700021  RH  073%=      5-min Rain = 0
KGGS 081830Z 26002KT 07/02 A3037 RMK A01 T00740024  RH  072%=      5-min Rain = 0
KGGS 081835Z 27001KT 07/02 A3037 RMK A01 T00740023  RH  071%=      5-min Rain = 0
KGGS 081840Z 21003KT 08/03 A3036 RMK A01 T00780026  RH  071%=      5-min Rain = 0
KGGS 081845Z 22002G7KT 08/03 A3036 RMK A01 T00780027  RH  071%=      5-min Rain = 0
KGGS 081850Z 22003KT 08/03 A3036 RMK A01 T00800027  RH  070%=      5-min Rain = 0
KGGS 081855Z 22004KT 08/03 A3036 RMK A01 T00790027  RH  071%=      5-min Rain = 0
KGGS 081900Z 26004KT 08/03 A3036 RMK A01 T00810029  RH  071%=      5-min Rain = 0
KGGS 081905Z 22004KT 08/03 A3035 RMK A01 T00830029  RH  070%=      5-min Rain = 0
KGGS 081910Z 21002KT 09/03 A3034 RMK A01 T00850032  RH  071%=      5-min Rain = 0
KGGS 081915Z 25004KT 09/04 A3034 RMK A01 T00900035  RH  069%=      5-min Rain = 0
KGGS 081920Z 25004KT 10/04 A3034 RMK A01 T00950037  RH  068%=      5-min Rain = 0
KGGS 081925Z 22002KT 10/04 A3034 RMK A01 T00960035  RH  067%=      5-min Rain = 0
KGGS 081930Z 24004KT 09/03 A3033 RMK A01 T00910033  RH  069%=      5-min Rain = 0
KGGS 081935Z 21004KT 09/04 A3033 RMK A01 T00930035  RH  069%=      5-min Rain = 0
KGGS 081940Z 24002KT 09/04 A3033 RMK A01 T00940037  RH  069%=      5-min Rain = 0
KGGS 081945Z 26002KT 10/04 A3033 RMK A01 T00960038  RH  068%=      5-min Rain = 0
KGGS 081950Z 24003KT 10/04 A3032 RMK A01 T00960039  RH  068%=      5-min Rain = 0
KGGS 081955Z 25005KT 10/04 A3032 RMK A01 T00990039  RH  068%=      5-min Rain = 0
KGGS 082000Z 26004KT 10/04 A3032 RMK A01 T00970038  RH  068%=      5-min Rain = 0
KGGS 082005Z 25002KT 10/04 A3032 RMK A01 T00990038  RH  067%=      5-min Rain = 0
KGGS 082010Z 24003KT 10/04 A3032 RMK A01 T01000040  RH  068%=      5-min Rain = 0
KGGS 082015Z 26003KT 10/04 A3032 RMK A01 T01010040  RH  067%=      5-min Rain = 0
KGGS 082020Z 21004KT 10/04 A3031 RMK A01 T01040043  RH  067%=      5-min Rain = 0
KGGS 082025Z 24005KT 11/04 A3031 RMK A01 T01050044  RH  068%=      5-min Rain = 0
KGGS 082030Z 25004KT 10/04 A3031 RMK A01 T01030042  RH  067%=      5-min Rain = 0
KGGS 082035Z 23002KT 10/04 A3031 RMK A01 T01030044  RH  068%=      5-min Rain = 0
KGGS 082040Z 25004KT 11/05 A3031 RMK A01 T01070047  RH  068%=      5-min Rain = 0
KGGS 082045Z 22005KT 11/05 A3031 RMK A01 T01080046  RH  067%=      5-min Rain = 0
KGGS 082050Z 21005KT 11/05 A303 RMK A01 T01070046  RH  067%=      5-min Rain = 0
KGGS 082055Z 21004KT 11/05 A303 RMK A01 T01080047  RH  067%=      5-min Rain = 0
KGGS 082100Z 26003KT 11/05 A303 RMK A01 T01120049  RH  067%=      5-min Rain = 0
KGGS 082105Z 25004KT 11/05 A303 RMK A01 T01120048  RH  066%=      5-min Rain = 0
KGGS 082110Z 26004KT 11/05 A303 RMK A01 T01130049  RH  066%=      5-min Rain = 0
KGGS 082115Z 26003KT 11/05 A303 RMK A01 T01110048  RH  067%=      5-min Rain = 0
KGGS 082120Z 25004KT 11/05 A303 RMK A01 T01110049  RH  067%=      5-min Rain = 0
KGGS 082125Z 25003KT 11/05 A303 RMK A01 T01100049  RH  067%=      5-min Rain = 0
KGGS 082130Z 24003KT 11/05 A303 RMK A01 T01100050  RH  068%=      5-min Rain = 0
KGGS 082135Z 25004KT 11/05 A303 RMK A01 T01120051  RH  067%=      5-min Rain = 0
KGGS 082140Z 28003KT 11/05 A303 RMK A01 T01100049  RH  067%=      5-min Rain = 0
KGGS 082145Z 25004KT 11/05 A303 RMK A01 T01110050  RH  068%=      5-min Rain = 0
KGGS 082150Z 25003KT 11/05 A303 RMK A01 T01140052  RH  067%=      5-min Rain = 0
KGGS 082155Z 20002KT 12/05 A303 RMK A01 T01150053  RH  067%=      5-min Rain = 0
KGGS 082200Z 22003KT 12/05 A303 RMK A01 T01170053  RH  066%=      5-min Rain = 0
KGGS 082205Z 21004KT 12/05 A303 RMK A01 T01150052  RH  067%=      5-min Rain = 0
KGGS 082210Z 22002KT 11/05 A303 RMK A01 T01120051  RH  068%=      5-min Rain = 0
KGGS 082215Z 23002KT 11/05 A303 RMK A01 T01130052  RH  068%=      5-min Rain = 0
KGGS 082220Z 23003KT 11/05 A303 RMK A01 T01140053  RH  068%=      5-min Rain = 0
KGGS 082225Z 25002KT 11/05 A3029 RMK A01 T01130052  RH  068%=      5-min Rain = 0
KGGS 082230Z 29002KT 11/05 A3029 RMK A01 T01140052  RH  068%=      5-min Rain = 0
KGGS 082235Z 15003KT 11/06 A303 RMK A01 T01130055  RH  069%=      5-min Rain = 0
KGGS 082240Z 21004KT 11/05 A303 RMK A01 T01140054  RH  068%=      5-min Rain = 0
KGGS 082245Z 19003KT 11/06 A3029 RMK A01 T01130055  RH  069%=      5-min Rain = 0
KGGS 082250Z 18004KT 11/05 A3029 RMK A01 T01110054  RH  070%=      5-min Rain = 0
KGGS 082255Z 20005KT 11/06 A303 RMK A01 T01110055  RH  070%=      5-min Rain = 0
KGGS 082300Z 20005KT 11/06 A303 RMK A01 T01110056  RH  070%=      5-min Rain = 0
KGGS 082305Z 18004KT 11/06 A303 RMK A01 T01110056  RH  070%=      5-min Rain = 0
KGGS 082310Z 18005KT 11/06 A303 RMK A01 T01090056  RH  071%=      5-min Rain = 0
KGGS 082315Z 18004KT 11/06 A303 RMK A01 T01070056  RH  072%=      5-min Rain = 0
KGGS 082320Z 18004KT 11/06 A303 RMK A01 T01060056  RH  073%=      5-min Rain = 0
KGGS 082325Z 18004KT 10/06 A303 RMK A01 T01040056  RH  074%=      5-min Rain = 0
KGGS 082330Z 18004KT 10/06 A303 RMK A01 T01010056  RH  075%=      5-min Rain = 0
KGGS 082335Z 18004KT 10/06 A303 RMK A01 T00990056  RH  076%=      5-min Rain = 0
KGGS 082340Z 19004KT 10/06 A303 RMK A01 T00960055  RH  078%=      5-min Rain = 0
KGGS 082345Z 19004KT 09/05 A303 RMK A01 T00930054  RH  079%=      5-min Rain = 0
KGGS 082350Z 19004KT 09/05 A303 RMK A01 T00900053  RH  079%=      5-min Rain = 0
KGGS 082355Z 19004KT 09/05 A303 RMK A01 T00880053  RH  081%=      5-min Rain = 0
KGGS 090000Z 19005KT 09/05 A303 RMK A01 T00850052  RH  082%=      5-min Rain = 0
KGGS 090005Z 19005KT 08/05 A303 RMK A01 T00830052  RH  083%=      5-min Rain = 0
KGGS 090010Z 20005KT 08/05 A303 RMK A01 T00820052  RH  084%=      5-min Rain = 0
KGGS 090015Z 20005KT 08/05 A303 RMK A01 T00810052  RH  084%=      5-min Rain = 0
KGGS 090020Z 20005KT 08/05 A303 RMK A01 T00800052  RH  085%=      5-min Rain = 0
KGGS 090025Z 20005KT 08/05 A303 RMK A01 T00780052  RH  085%=      5-min Rain = 0
KGGS 090030Z 20004KT 08/05 A3029 RMK A01 T00760051  RH  086%=      5-min Rain = 0
KGGS 090035Z 20004KT 07/05 A303 RMK A01 T00740050  RH  087%=      5-min Rain = 0
KGGS 090040Z 20005KT 07/05 A3029 RMK A01 T00730050  RH  087%=      5-min Rain = 0
KGGS 090045Z 20005KT 07/05 A3029 RMK A01 T00730050  RH  088%=      5-min Rain = 0
KGGS 090050Z 20005KT 07/05 A3029 RMK A01 T00710050  RH  088%=      5-min Rain = 0
KGGS 090055Z 20004KT 07/05 A3029 RMK A01 T00700050  RH  089%=      5-min Rain = 0
KGGS 090100Z 20004KT 07/05 A303 RMK A01 T00700050  RH  089%=      5-min Rain = 0
KGGS 090105Z 20004KT 07/05 A303 RMK A01 T00700050  RH  089%=      5-min Rain = 0
KGGS 090110Z 19003KT 07/05 A303 RMK A01 T00690049  RH  089%=      5-min Rain = 0
KGGS 090115Z 19004KT 07/05 A303 RMK A01 T00680049  RH  090%=      5-min Rain = 0
KGGS 090120Z 19004KT 07/05 A3029 RMK A01 T00680049  RH  090%=      5-min Rain = 0
KGGS 090125Z 20005KT 07/05 A3029 RMK A01 T00670049  RH  090%=      5-min Rain = 0
KGGS 090130Z 20005KT 07/05 A303 RMK A01 T00670049  RH  090%=      5-min Rain = 0
KGGS 090135Z 20004KT 07/05 A303 RMK A01 T00680050  RH  091%=      5-min Rain = 0
KGGS 090140Z 20004KT 07/05 A303 RMK A01 T00670050  RH  091%=      5-min Rain = 0
KGGS 090145Z 21004KT 07/05 A303 RMK A01 T00660050  RH  091%=      5-min Rain = 0
KGGS 090150Z 21004KT 07/05 A303 RMK A01 T00670050  RH  091%=      5-min Rain = 0
KGGS 090155Z 21004KT 07/05 A303 RMK A01 T00670051  RH  091%=      5-min Rain = 0
KGGS 090200Z 21004KT 07/05 A303 RMK A01 T00670050  RH  091%=      5-min Rain = 0
KGGS 090205Z 21004KT 07/05 A3031 RMK A01 T00660050  RH  092%=      5-min Rain = 0
KGGS 090210Z 21003KT 07/05 A3031 RMK A01 T00660050  RH  092%=      5-min Rain = 0
KGGS 090215Z 20004KT 06/05 A3031 RMK A01 T00640048  RH  092%=      5-min Rain = 0
KGGS 090220Z 20004KT 06/05 A3031 RMK A01 T00610046  RH  092%=      5-min Rain = 0
KGGS 090225Z 20004KT 06/05 A3031 RMK A01 T00620047  RH  092%=      5-min Rain = 0
KGGS 090230Z 20004KT 06/05 A3031 RMK A01 T00610046  RH  092%=      5-min Rain = 0
KGGS 090235Z 20004KT 06/05 A3031 RMK A01 T00610046  RH  092%=      5-min Rain = 0
KGGS 090240Z 20004KT 06/05 A3031 RMK A01 T00600045  RH  092%=      5-min Rain = 0
KGGS 090245Z 20005KT 06/05 A3031 RMK A01 T00600046  RH  092%=      5-min Rain = 0
KGGS 090250Z 20004KT 06/05 A3031 RMK A01 T00590045  RH  093%=      5-min Rain = 0
KGGS 090255Z 20004KT 06/05 A3031 RMK A01 T00590045  RH  093%=      5-min Rain = 0
KGGS 090300Z 20003KT 06/04 A3031 RMK A01 T00580044  RH  093%=      5-min Rain = 0
KGGS 090305Z 20003KT 06/04 A3031 RMK A01 T00570043  RH  093%=      5-min Rain = 0
KGGS 090310Z 20004KT 06/04 A3031 RMK A01 T00560043  RH  093%=      5-min Rain = 0
KGGS 090315Z 20004KT 06/04 A3031 RMK A01 T00560043  RH  093%=      5-min Rain = 0
KGGS 090320Z 19004KT 06/04 A3031 RMK A01 T00550042  RH  093%=      5-min Rain = 0
KGGS 090325Z 19005KT 05/04 A3031 RMK A01 T00540041  RH  093%=      5-min Rain = 0
KGGS 090330Z 19005KT 05/04 A3031 RMK A01 T00540041  RH  093%=      5-min Rain = 0
KGGS 090335Z 20005KT 05/04 A3031 RMK A01 T00540041  RH  093%=      5-min Rain = 0
KGGS 090340Z 20005KT 05/04 A3031 RMK A01 T00540042  RH  093%=      5-min Rain = 0
KGGS 090345Z 20005KT 05/04 A3031 RMK A01 T00540041  RH  093%=      5-min Rain = 0
KGGS 090350Z 20004KT 05/04 A3031 RMK A01 T00530041  RH  094%=      5-min Rain = 0
KGGS 090355Z 20004KT 05/04 A3031 RMK A01 T00520039  RH  094%=      5-min Rain = 0
KGGS 090400Z 20004KT 05/04 A3031 RMK A01 T00510039  RH  094%=      5-min Rain = 0
KGGS 090405Z 20004KT 05/04 A3031 RMK A01 T00530041  RH  094%=      5-min Rain = 0
KGGS 090410Z 20005KT 06/04 A3031 RMK A01 T00560044  RH  094%=      5-min Rain = 0
KGGS 090415Z 21004KT 06/05 A3031 RMK A01 T00560045  RH  094%=      5-min Rain = 0
KGGS 090420Z 21004KT 06/04 A303 RMK A01 T00550043  RH  094%=      5-min Rain = 0
KGGS 090425Z 21003KT 06/04 A303 RMK A01 T00550043  RH  094%=      5-min Rain = 0
KGGS 090430Z 22002KT 05/04 A303 RMK A01 T00490037  RH  094%=      5-min Rain = 0
KGGS 090435Z 24001KT 04/03 A303 RMK A01 T00440032  RH  094%=      5-min Rain = 0
KGGS 090440Z 23002KT 05/03 A303 RMK A01 T00450034  RH  094%=      5-min Rain = 0
KGGS 090445Z 23003KT 05/04 A303 RMK A01 T00490038  RH  094%=      5-min Rain = 0
KGGS 090450Z 23003KT 06/05 A303 RMK A01 T00570045  RH  094%=      5-min Rain = 0
KGGS 090455Z 22004KT 06/04 A303 RMK A01 T00550044  RH  094%=      5-min Rain = 0
KGGS 090500Z 22003KT 05/04 A303 RMK A01 T00540042  RH  094%=      5-min Rain = 0
KGGS 090505Z 22005KT 05/04 A303 RMK A01 T00520041  RH  094%=      5-min Rain = 0
KGGS 090510Z 22006KT 05/04 A303 RMK A01 T00510040  RH  094%=      5-min Rain = 0
KGGS 090515Z 22005KT 05/04 A303 RMK A01 T00540042  RH  094%=      5-min Rain = 0
KGGS 090520Z 22005KT 06/04 A303 RMK A01 T00550044  RH  094%=      5-min Rain = 0
KGGS 090525Z 22005KT 05/04 A303 RMK A01 T00540043  RH  094%=      5-min Rain = 0
KGGS 090530Z 22005KT 06/04 A303 RMK A01 T00550043  RH  094%=      5-min Rain = 0
KGGS 090535Z 22006KT 05/04 A303 RMK A01 T00540043  RH  094%=      5-min Rain = 0
KGGS 090540Z 22006KT 06/05 A303 RMK A01 T00560045  RH  094%=      5-min Rain = 0
KGGS 090545Z 22006KT 06/04 A303 RMK A01 T00550044  RH  094%=      5-min Rain = 0
KGGS 090550Z 22006KT 06/04 A303 RMK A01 T00550043  RH  094%=      5-min Rain = 0
KGGS 090555Z 22006KT 06/04 A303 RMK A01 T00550044  RH  095%=      5-min Rain = 0

Page generated in 0.0186 seconds.